Time;durP1;ratioP1;P1;durP2;ratioP2;P2;SDS_P1;SDS_P2;PMS_P1;PMS_P2;Temp;Humidity;BMP_temperature;BMP_pressure;BME280_temperature;BME280_humidity;BME280_pressure;Samples;Min_cycle;Max_cycle;Signal;HPM_P1;HPM_P2
2020/12/24 00:01:05;;;;;;;75.53;43.20;;;9.50;92.20;;;;;;5035957;28;20496;-68
2020/12/24 00:03:31;;;;;;;74.67;43.00;;;9.50;92.10;;;;;;5035746;28;20075;-68
2020/12/24 00:05:57;;;;;;;85.13;45.83;;;9.50;92.10;;;;;;5035813;28;20072;-68
2020/12/24 00:08:23;;;;;;;75.83;45.40;;;9.50;92.10;;;;;;5034343;28;20026;-68
2020/12/24 00:10:49;;;;;;;76.03;43.50;;;9.50;92.10;;;;;;5035502;28;20032;-69
2020/12/24 00:13:15;;;;;;;81.10;45.67;;;9.50;92.10;;;;;;5035861;28;20025;-68
2020/12/24 00:15:43;;;;;;;74.40;43.23;;;9.50;92.20;;;;;;5035602;28;20029;-68
2020/12/24 00:18:08;;;;;;;77.67;44.07;;;9.50;92.10;;;;;;5035480;28;20041;-68
2020/12/24 00:20:34;;;;;;;76.10;43.73;;;9.50;92.10;;;;;;5035528;28;20041;-68
2020/12/24 00:23:00;;;;;;;72.80;43.10;;;9.50;92.00;;;;;;5035516;28;20385;-68
2020/12/24 00:25:26;;;;;;;80.40;45.17;;;9.50;91.90;;;;;;5035417;28;20148;-68
2020/12/24 00:27:51;;;;;;;78.57;45.37;;;9.50;91.80;;;;;;5035386;28;20029;-68
2020/12/24 00:30:17;;;;;;;80.60;46.37;;;9.50;91.80;;;;;;5035288;28;20030;-68
2020/12/24 00:32:43;;;;;;;86.83;47.40;;;9.50;91.90;;;;;;5035376;28;20053;-68
2020/12/24 00:35:09;;;;;;;83.33;46.30;;;9.50;91.90;;;;;;5035229;28;20474;-68
2020/12/24 00:37:34;;;;;;;79.17;43.13;;;9.50;92.10;;;;;;5033862;28;20485;-68
2020/12/24 00:40:00;;;;;;;74.73;41.23;;;9.40;92.00;;;;;;5035266;28;20048;-68
2020/12/24 00:42:26;;;;;;;75.03;43.47;;;9.50;92.10;;;;;;5035048;28;20029;-68
2020/12/24 00:44:51;;;;;;;81.33;45.33;;;9.40;92.00;;;;;;5035270;28;20398;-68
2020/12/24 00:47:17;;;;;;;84.77;45.63;;;9.40;92.10;;;;;;5034862;28;20072;-68
2020/12/24 00:49:43;;;;;;;85.93;45.67;;;9.40;92.10;;;;;;5034758;28;20029;-68
2020/12/24 00:52:08;;;;;;;84.50;46.37;;;9.40;92.10;;;;;;5035037;28;20386;-68
2020/12/24 00:54:34;;;;;;;90.30;49.20;;;9.50;92.10;;;;;;5034690;28;20370;-68
2020/12/24 00:57:00;;;;;;;90.57;47.77;;;9.40;92.20;;;;;;5034531;28;20025;-68
2020/12/24 00:59:26;;;;;;;90.40;49.33;;;9.40;92.20;;;;;;5034722;28;20104;-68
2020/12/24 01:01:51;;;;;;;88.87;47.27;;;9.40;92.20;;;;;;5034751;28;20041;-68
2020/12/24 01:04:17;;;;;;;79.40;43.80;;;9.40;92.30;;;;;;5034566;28;20462;-68
2020/12/24 01:06:42;;;;;;;78.50;44.07;;;9.40;92.30;;;;;;5034425;28;20466;-68
2020/12/24 01:09:08;;;;;;;83.87;46.63;;;9.50;92.20;;;;;;5034403;28;20462;-68
2020/12/24 01:11:34;;;;;;;75.17;43.97;;;9.40;92.20;;;;;;5034481;28;20029;-68
2020/12/24 01:14:00;;;;;;;68.27;41.60;;;9.50;92.20;;;;;;5034799;28;20032;-68
2020/12/24 01:16:26;;;;;;;79.43;45.40;;;9.50;92.20;;;;;;5034157;28;20474;-68
2020/12/24 01:18:52;;;;;;;73.23;42.80;;;9.50;92.10;;;;;;5034157;28;20029;-68
2020/12/24 01:21:17;;;;;;;82.03;46.03;;;9.50;92.10;;;;;;5034005;28;20030;-68
2020/12/24 01:23:43;;;;;;;82.33;46.20;;;9.40;92.20;;;;;;5033933;28;20028;-68
2020/12/24 01:26:09;;;;;;;83.30;46.60;;;9.40;92.20;;;;;;5034037;28;20397;-68
2020/12/24 01:28:35;;;;;;;82.03;46.27;;;9.40;92.20;;;;;;5034242;28;20377;-68
2020/12/24 01:31:03;;;;;;;89.43;48.07;;;9.40;92.30;;;;;;5034111;28;20030;-68
2020/12/24 01:33:29;;;;;;;77.17;42.73;;;9.40;92.30;;;;;;5033747;28;20021;-68
2020/12/24 01:35:55;;;;;;;74.68;43.72;;;9.40;92.40;;;;;;5033723;28;20527;-68
2020/12/24 01:38:21;;;;;;;76.37;44.57;;;9.50;92.30;;;;;;5034051;28;20120;-68
2020/12/24 01:40:47;;;;;;;79.30;45.20;;;9.50;92.20;;;;;;5033841;28;20033;-68
2020/12/24 01:43:13;;;;;;;76.43;43.70;;;9.50;92.20;;;;;;5033930;28;20021;-68
2020/12/24 01:45:39;;;;;;;77.77;43.53;;;9.50;92.20;;;;;;5033769;28;20040;-68
2020/12/24 01:48:04;;;;;;;74.93;44.43;;;9.50;92.20;;;;;;5033830;28;20021;-68
2020/12/24 01:50:30;;;;;;;78.00;45.63;;;9.40;92.20;;;;;;5033830;28;20033;-68
2020/12/24 01:52:58;;;;;;;77.43;43.73;;;9.50;92.20;;;;;;5033622;28;20025;-68
2020/12/24 01:55:24;;;;;;;79.07;43.37;;;9.40;92.20;;;;;;5033896;28;20029;-68
2020/12/24 01:57:52;;;;;;;77.73;43.17;;;9.50;92.30;;;;;;5032401;28;20021;-68
2020/12/24 02:00:18;;;;;;;79.23;44.13;;;9.40;92.20;;;;;;5030798;28;20047;-68
2020/12/24 02:02:44;;;;;;;81.90;43.73;;;9.40;92.20;;;;;;5030853;28;20535;-68
2020/12/24 02:05:10;;;;;;;75.90;43.20;;;9.40;92.20;;;;;;5031982;28;20026;-68
2020/12/24 02:07:36;;;;;;;74.97;41.80;;;9.40;92.20;;;;;;5033309;28;20105;-68
2020/12/24 02:10:02;;;;;;;89.77;46.67;;;9.40;92.20;;;;;;5033430;28;20031;-68
2020/12/24 02:12:28;;;;;;;85.40;45.00;;;9.40;92.20;;;;;;5033421;28;20079;-68
2020/12/24 02:14:54;;;;;;;100.70;46.93;;;9.40;92.20;;;;;;5033086;28;20030;-68
2020/12/24 02:17:19;;;;;;;84.20;46.30;;;9.30;92.30;;;;;;5033208;28;20017;-68
2020/12/24 02:19:45;;;;;;;79.47;42.80;;;9.30;92.40;;;;;;5033137;28;20496;-68
2020/12/24 02:22:12;;;;;;;80.67;47.43;;;9.30;92.30;;;;;;5033018;28;20026;-68
2020/12/24 02:24:44;;;;;;;90.83;49.00;;;9.30;92.30;;;;;;5033358;28;20030;-69
2020/12/24 02:27:12;;;;;;;89.47;46.92;;;9.30;92.30;;;;;;5033148;28;20021;-68
2020/12/24 02:29:38;;;;;;;84.60;46.57;;;9.30;92.30;;;;;;5032784;28;20031;-68
2020/12/24 02:32:04;;;;;;;87.43;47.83;;;9.20;92.30;;;;;;5032359;28;20424;-69
2020/12/24 02:34:30;;;;;;;80.17;46.07;;;9.20;92.40;;;;;;5032783;28;20068;-68
2020/12/24 02:36:55;;;;;;;79.53;44.70;;;9.20;92.40;;;;;;5032551;28;20053;-69
2020/12/24 02:39:21;;;;;;;77.43;45.23;;;9.20;92.50;;;;;;5033075;28;20026;-68
2020/12/24 02:41:47;;;;;;;82.83;45.53;;;9.20;92.50;;;;;;5033132;28;20032;-68
2020/12/24 02:44:12;;;;;;;86.37;48.67;;;9.20;92.40;;;;;;5032872;28;20393;-68
2020/12/24 02:46:40;;;;;;;83.87;46.43;;;9.20;92.50;;;;;;5032977;28;20374;-68
2020/12/24 02:49:06;;;;;;;90.43;47.00;;;9.20;92.50;;;;;;5032975;28;20470;-68
2020/12/24 02:51:32;;;;;;;87.13;45.33;;;9.20;92.50;;;;;;5032761;28;20030;-68
2020/12/24 02:53:57;;;;;;;89.87;47.47;;;9.20;92.60;;;;;;5032992;28;20025;-68
2020/12/24 02:56:23;;;;;;;89.00;47.77;;;9.20;92.50;;;;;;5032866;28;20021;-69
2020/12/24 02:58:49;;;;;;;97.63;48.30;;;9.20;92.50;;;;;;5032630;28;20030;-69
2020/12/24 03:01:14;;;;;;;103.27;49.03;;;9.20;92.50;;;;;;5032888;28;20370;-68
2020/12/24 03:03:40;;;;;;;93.93;48.57;;;9.20;92.60;;;;;;5032967;28;20021;-68
2020/12/24 03:06:06;;;;;;;93.77;48.73;;;9.20;92.50;;;;;;5032607;28;20029;-69
2020/12/24 03:08:31;;;;;;;95.00;48.53;;;9.20;92.50;;;;;;5032755;28;20053;-69
2020/12/24 03:10:57;;;;;;;107.00;52.17;;;9.20;92.50;;;;;;5032892;28;20025;-68
2020/12/24 03:13:23;;;;;;;105.20;50.90;;;9.20;92.60;;;;;;5032915;28;20060;-68
2020/12/24 03:15:48;;;;;;;104.73;48.97;;;9.20;92.60;;;;;;5032735;28;20025;-68
2020/12/24 03:18:15;;;;;;;94.17;49.23;;;9.20;92.60;;;;;;5032702;28;20032;-68
2020/12/24 03:20:41;;;;;;;107.30;50.17;;;9.20;92.60;;;;;;5032499;28;20040;-68
2020/12/24 03:23:07;;;;;;;107.83;49.70;;;9.20;92.70;;;;;;5032562;28;20101;-68
2020/12/24 03:25:33;;;;;;;104.23;50.20;;;9.20;92.60;;;;;;5032715;28;20060;-68
2020/12/24 03:27:58;;;;;;;108.77;49.90;;;9.10;92.60;;;;;;5032892;28;20029;-69
2020/12/24 03:30:24;;;;;;;96.27;48.07;;;9.20;92.70;;;;;;5032831;28;20022;-68
2020/12/24 03:32:50;;;;;;;103.53;49.37;;;9.10;92.60;;;;;;5032545;28;20021;-69
2020/12/24 03:35:15;;;;;;;102.57;49.27;;;9.10;92.60;;;;;;5032600;28;20029;-68
2020/12/24 03:37:41;;;;;;;107.40;48.93;;;9.10;92.60;;;;;;5032640;28;20516;-68
2020/12/24 03:40:07;;;;;;;104.87;48.20;;;9.20;92.60;;;;;;5032457;28;20029;-69
2020/12/24 03:42:34;;;;;;;88.17;44.13;;;9.20;92.90;;;;;;5033115;28;20024;-68
2020/12/24 03:44:59;;;;;;;94.10;45.70;;;9.20;92.60;;;;;;5035927;28;20021;-68
2020/12/24 03:47:25;;;;;;;93.27;42.43;;;9.20;92.60;;;;;;5036124;28;20027;-68
2020/12/24 03:49:51;;;;;;;81.50;40.83;;;9.20;92.70;;;;;;5036101;28;20029;-68
2020/12/24 03:52:16;;;;;;;78.83;41.57;;;9.20;92.50;;;;;;5035891;28;20017;-68
2020/12/24 03:54:42;;;;;;;71.50;37.17;;;9.20;92.80;;;;;;5035769;28;20034;-68
2020/12/24 03:57:08;;;;;;;81.03;41.60;;;9.10;92.40;;;;;;5035633;28;20109;-68
2020/12/24 03:59:34;;;;;;;69.63;35.33;;;9.20;92.40;;;;;;5035713;28;20057;-68
2020/12/24 04:01:59;;;;;;;67.13;35.30;;;9.20;92.40;;;;;;5035942;28;20139;-68
2020/12/24 04:04:25;;;;;;;63.67;35.13;;;9.20;92.30;;;;;;5035587;28;20064;-68
2020/12/24 04:06:51;;;;;;;69.40;35.23;;;9.10;92.30;;;;;;5035845;28;20040;-68
2020/12/24 04:09:16;;;;;;;54.80;30.90;;;9.10;92.30;;;;;;5035686;28;20033;-68
2020/12/24 04:11:42;;;;;;;63.67;33.57;;;9.10;92.40;;;;;;5035515;28;20501;-68
2020/12/24 04:14:08;;;;;;;61.40;31.87;;;9.10;92.40;;;;;;5035408;28;20076;-68
2020/12/24 04:16:33;;;;;;;54.97;29.73;;;9.10;92.30;;;;;;5035650;28;20025;-68
2020/12/24 04:18:59;;;;;;;59.10;30.67;;;9.20;92.30;;;;;;5035286;28;20029;-68
2020/12/24 04:21:25;;;;;;;57.13;31.80;;;9.10;92.30;;;;;;5035566;28;20037;-68
2020/12/24 04:23:50;;;;;;;67.07;33.73;;;9.10;92.30;;;;;;5035464;28;20029;-68
2020/12/24 04:26:23;;;;;;;63.67;33.60;;;9.10;92.40;;;;;;5035148;28;20474;-68
2020/12/24 04:28:49;;;;;;;61.37;32.43;;;9.10;92.40;;;;;;5035326;28;20377;-68
2020/12/24 04:31:16;;;;;;;56.10;30.87;;;9.10;92.40;;;;;;5035312;28;20025;-68
2020/12/24 04:33:42;;;;;;;55.00;30.27;;;9.20;92.40;;;;;;5035287;28;20068;-68
2020/12/24 04:36:08;;;;;;;62.23;32.60;;;9.20;92.40;;;;;;5035024;28;20053;-68
2020/12/24 04:38:34;;;;;;;61.50;31.47;;;9.20;92.40;;;;;;5034812;28;20022;-68
2020/12/24 04:41:01;;;;;;;62.53;32.83;;;9.20;92.40;;;;;;5035310;28;20049;-68
2020/12/24 04:43:28;;;;;;;58.77;32.20;;;9.20;92.40;;;;;;5035200;28;20409;-68
2020/12/24 04:45:54;;;;;;;62.10;31.90;;;9.20;92.40;;;;;;5034910;28;20025;-68
2020/12/24 04:48:21;;;;;;;60.90;33.00;;;9.20;92.40;;;;;;5034954;28;20026;-69
2020/12/24 04:50:51;;;;;;;69.30;34.23;;;9.20;92.40;;;;;;5035079;28;20442;-69
2020/12/24 04:53:18;;;;;;;55.97;31.90;;;9.20;92.60;;;;;;5035161;28;20393;-68
2020/12/24 04:55:44;;;;;;;56.30;32.47;;;9.20;92.30;;;;;;5034047;28;20437;-69
2020/12/24 04:58:10;;;;;;;63.07;34.03;;;9.20;92.40;;;;;;5034754;28;20034;-68
2020/12/24 05:00:37;;;;;;;57.07;31.73;;;9.20;92.40;;;;;;5034655;28;20121;-69
2020/12/24 05:03:10;;;;;;;56.23;32.07;;;9.20;92.40;;;;;;5034776;28;20036;-68
2020/12/24 05:05:38;;;;;;;54.90;32.33;;;9.20;92.40;;;;;;5034536;28;20026;-68
2020/12/24 05:08:06;;;;;;;56.87;31.77;;;9.30;92.40;;;;;;5034605;28;20026;-68
2020/12/24 05:10:33;;;;;;;58.97;32.00;;;9.20;92.30;;;;;;5034373;28;20462;-68
2020/12/24 05:12:59;;;;;;;56.87;31.87;;;9.30;92.40;;;;;;5034579;28;20033;-68
2020/12/24 05:15:29;;;;;;;65.03;34.43;;;9.30;92.40;;;;;;5034202;28;20022;-69
2020/12/24 05:18:18;;;;;;;60.07;31.30;;;9.30;92.40;;;;;;5034453;28;20037;-69
2020/12/24 05:20:44;;;;;;;54.67;30.60;;;9.30;92.40;;;;;;5034000;28;20040;-68
2020/12/24 05:23:15;;;;;;;59.17;31.00;;;9.30;92.40;;;;;;5034340;28;20017;-69
2020/12/24 05:25:42;;;;;;;51.92;30.33;;;9.30;92.30;;;;;;5034141;28;20156;-68
2020/12/24 05:28:08;;;;;;;50.87;30.80;;;9.30;92.40;;;;;;5034169;28;20033;-69
2020/12/24 05:30:34;;;;;;;48.30;28.45;;;9.30;92.40;;;;;;5034187;28;20032;-68
2020/12/24 05:33:00;;;;;;;51.47;29.17;;;9.30;92.40;;;;;;5033972;28;20029;-68
2020/12/24 05:35:28;;;;;;;53.47;29.93;;;9.30;92.40;;;;;;5033799;28;20053;-68
2020/12/24 05:37:54;;;;;;;50.43;28.00;;;9.30;92.30;;;;;;5033916;28;20128;-68
2020/12/24 05:40:33;;;;;;;54.17;29.83;;;9.30;92.30;;;;;;5033604;28;20051;-69
2020/12/24 05:43:01;;;;;;;53.95;29.40;;;9.30;92.30;;;;;;5033948;28;20440;-68
2020/12/24 05:45:28;;;;;;;48.50;28.20;;;9.40;92.30;;;;;;5030883;28;20033;-69
2020/12/24 05:48:14;;;;;;;45.87;27.43;;;9.30;92.30;;;;;;5030928;28;20497;-69
2020/12/24 05:50:42;;;;;;;46.70;28.60;;;9.30;92.20;;;;;;5033033;28;20032;-69
2020/12/24 05:53:13;;;;;;;47.57;28.27;;;9.30;92.20;;;;;;5033963;28;20412;-69
2020/12/24 05:55:42;;;;;;;45.60;28.00;;;9.30;92.20;;;;;;5033806;28;20029;-69
2020/12/24 05:58:09;;;;;;;51.93;29.93;;;9.30;92.10;;;;;;5033622;28;20044;-69
2020/12/24 06:00:35;;;;;;;51.63;30.13;;;9.30;92.20;;;;;;5033393;28;20083;-69
2020/12/24 06:03:11;;;;;;;48.42;29.00;;;9.30;92.20;;;;;;5033605;28;20533;-69
2020/12/24 06:05:53;;;;;;;52.63;29.40;;;9.30;92.20;;;;;;5033518;28;20029;-68
2020/12/24 06:08:28;;;;;;;53.03;29.13;;;9.30;92.10;;;;;;5033338;28;20481;-69
2020/12/24 06:11:08;;;;;;;50.65;30.73;;;9.30;92.10;;;;;;5033475;28;20025;-68
2020/12/24 06:13:36;;;;;;;60.50;32.43;;;9.30;92.10;;;;;;5031955;28;20056;-69
2020/12/24 06:16:07;;;;;;;60.83;33.80;;;9.30;92.10;;;;;;5028966;28;20067;-69
2020/12/24 06:18:41;;;;;;;56.27;32.30;;;9.20;92.10;;;;;;5030363;28;20057;-69
2020/12/24 06:21:17;;;;;;;54.67;32.20;;;9.20;92.20;;;;;;5032744;28;20493;-69
2020/12/24 06:23:54;;;;;;;64.07;33.50;;;9.20;92.20;;;;;;5031768;28;20486;-69
2020/12/24 06:26:24;;;;;;;71.33;39.30;;;9.20;92.20;;;;;;5031479;28;20028;-68
2020/12/24 06:28:54;;;;;;;65.87;38.47;;;9.10;92.30;;;;;;5032638;28;20064;-69
2020/12/24 06:31:22;;;;;;;71.23;39.83;;;9.10;92.40;;;;;;5033299;28;20496;-69
2020/12/24 06:33:47;;;;;;;64.63;39.30;;;9.10;92.50;;;;;;5035022;28;20026;-69
2020/12/24 06:36:37;;;;;;;58.73;34.90;;;9.10;92.40;;;;;;5032453;28;20038;-68
2020/12/24 06:39:04;;;;;;;53.03;34.40;;;9.10;92.40;;;;;;5032785;28;20064;-69
2020/12/24 06:41:35;;;;;;;52.67;35.03;;;9.10;92.50;;;;;;5033141;28;20083;-68
2020/12/24 06:44:01;;;;;;;51.70;34.07;;;9.10;92.50;;;;;;5033033;28;20022;-69
2020/12/24 06:46:26;;;;;;;51.17;35.53;;;9.10;92.40;;;;;;5032931;28;20056;-69
2020/12/24 06:49:04;;;;;;;50.37;33.33;;;9.10;92.30;;;;;;5033156;28;20025;-68
2020/12/24 06:51:50;;;;;;;50.90;34.60;;;9.10;92.40;;;;;;5033286;28;20021;-69
2020/12/24 06:54:19;;;;;;;57.97;37.43;;;9.10;92.50;;;;;;5033025;28;20079;-68
2020/12/24 06:56:45;;;;;;;54.03;34.17;;;9.10;92.60;;;;;;5033081;28;20389;-68
2020/12/24 06:59:18;;;;;;;50.17;34.47;;;9.10;92.60;;;;;;5032937;28;20036;-68
2020/12/24 07:02:03;;;;;;;47.93;32.37;;;9.10;92.60;;;;;;5033123;28;20272;-68
2020/12/24 07:04:40;;;;;;;45.73;32.20;;;9.10;92.50;;;;;;5033085;28;20374;-69
2020/12/24 07:07:07;;;;;;;45.07;31.33;;;9.20;92.50;;;;;;5033037;28;20022;-69
2020/12/24 07:09:32;;;;;;;43.77;30.57;;;9.10;92.50;;;;;;5030727;28;20025;-68
2020/12/24 07:11:59;;;;;;;45.67;31.73;;;9.20;92.50;;;;;;5032594;28;20041;-68
2020/12/24 07:14:36;;;;;;;46.50;32.17;;;9.20;92.40;;;;;;5032443;28;20482;-69
2020/12/24 07:17:18;;;;;;;44.60;32.93;;;9.20;92.50;;;;;;5032786;28;20033;-68
2020/12/24 07:19:46;;;;;;;40.80;30.52;;;9.20;92.50;;;;;;5036520;28;20041;-68
2020/12/24 07:22:14;;;;;;;44.77;31.70;;;9.20;92.40;;;;;;5036584;28;20030;-69
2020/12/24 07:24:39;;;;;;;44.30;30.93;;;9.20;92.30;;;;;;5036932;28;20037;-68
2020/12/24 07:27:06;;;;;;;42.43;30.47;;;9.20;92.20;;;;;;5035176;28;20028;-69
2020/12/24 07:29:34;;;;;;;46.47;31.93;;;9.20;92.20;;;;;;5034506;28;20025;-69
2020/12/24 07:32:06;;;;;;;47.83;32.40;;;9.20;92.20;;;;;;5036591;28;20021;-68
2020/12/24 07:34:36;;;;;;;43.92;31.63;;;9.20;92.30;;;;;;5035379;28;20025;-68
2020/12/24 07:37:03;;;;;;;40.90;29.97;;;9.20;92.40;;;;;;5035491;28;20053;-69
2020/12/24 07:39:28;;;;;;;42.73;30.13;;;9.20;92.30;;;;;;5036230;28;20028;-69
2020/12/24 07:41:54;;;;;;;40.17;29.27;;;9.20;92.30;;;;;;5036093;28;20102;-68
2020/12/24 07:44:20;;;;;;;40.53;28.73;;;9.30;92.30;;;;;;5036364;28;20052;-69
2020/12/24 07:46:47;;;;;;;39.30;28.70;;;9.30;92.20;;;;;;5036104;28;20036;-68
2020/12/24 07:49:14;;;;;;;47.40;30.33;;;9.30;92.20;;;;;;5035765;28;20048;-68
2020/12/24 07:51:40;;;;;;;50.90;31.40;;;9.30;92.20;;;;;;5033661;28;20033;-69
2020/12/24 07:54:07;;;;;;;46.57;29.67;;;9.30;92.20;;;;;;5031283;28;20040;-68
2020/12/24 07:56:34;;;;;;;44.90;30.27;;;9.20;92.20;;;;;;5031321;28;20281;-68
2020/12/24 07:59:02;;;;;;;42.67;28.07;;;9.20;92.20;;;;;;5034533;28;20120;-67
2020/12/24 08:01:28;;;;;;;49.40;30.77;;;9.20;92.20;;;;;;5035620;28;20040;-67
2020/12/24 08:04:01;;;;;;;48.97;30.80;;;9.30;92.20;;;;;;5035351;28;20025;-67
2020/12/24 08:06:28;;;;;;;46.37;30.43;;;9.30;92.30;;;;;;5035367;28;20033;-67
2020/12/24 08:09:17;;;;;;;47.87;29.70;;;9.30;92.30;;;;;;5035714;28;20048;-67
2020/12/24 08:11:54;;;;;;;48.70;29.53;;;9.30;92.30;;;;;;5032482;28;20121;-67
2020/12/24 08:14:24;;;;;;;52.00;29.77;;;9.30;92.40;;;;;;5035213;28;20029;-67
2020/12/24 08:16:51;;;;;;;50.97;30.90;;;9.30;92.30;;;;;;5035596;28;20105;-68
2020/12/24 08:19:43;;;;;;;54.17;31.10;;;9.30;92.20;;;;;;5035389;28;20032;-69
2020/12/24 08:22:21;;;;;;;48.40;29.27;;;9.30;92.20;;;;;;5035210;28;20129;-69
2020/12/24 08:24:47;;;;;;;47.95;30.33;;;9.40;92.40;;;;;;5035422;28;20418;-69
2020/12/24 08:27:13;;;;;;;51.97;30.63;;;9.40;92.40;;;;;;5035402;28;20185;-70
2020/12/24 08:29:39;;;;;;;50.53;29.48;;;9.50;92.30;;;;;;5031990;28;20049;-70
2020/12/24 08:32:05;;;;;;;46.43;29.23;;;9.50;92.20;;;;;;5032475;28;20029;-69
2020/12/24 08:34:31;;;;;;;46.33;29.47;;;9.60;92.10;;;;;;5033986;28;20030;-69
2020/12/24 08:36:57;;;;;;;46.50;29.37;;;9.60;92.00;;;;;;5035058;28;20091;-69
2020/12/24 08:39:23;;;;;;;48.58;30.30;;;9.70;91.90;;;;;;5034872;28;20036;-69
2020/12/24 08:42:00;;;;;;;46.33;28.93;;;9.70;91.80;;;;;;5035106;28;20055;-69
2020/12/24 08:44:26;;;;;;;46.30;29.02;;;9.70;91.80;;;;;;5034900;28;20022;-69
2020/12/24 08:47:03;;;;;;;51.78;30.13;;;9.70;91.70;;;;;;5034956;28;20026;-69
2020/12/24 08:49:28;;;;;;;61.70;39.92;;;9.70;91.60;;;;;;5034888;28;20424;-69
2020/12/24 08:52:08;;;;;;;59.03;40.22;;;9.80;91.60;;;;;;5034744;28;20104;-69
2020/12/24 08:54:33;;;;;;;54.50;36.63;;;9.80;91.50;;;;;;5034649;28;20072;-69
2020/12/24 08:57:01;;;;;;;50.53;31.13;;;9.80;91.50;;;;;;5032582;28;20350;-70
2020/12/24 08:59:27;;;;;;;46.73;31.03;;;9.80;91.50;;;;;;5033082;28;20087;-70
2020/12/24 09:01:53;;;;;;;49.43;29.80;;;9.80;91.40;;;;;;5032720;28;20025;-70
2020/12/24 09:04:18;;;;;;;53.25;31.77;;;9.80;91.40;;;;;;5033878;28;20023;-69
2020/12/24 09:06:45;;;;;;;45.00;29.00;;;9.80;91.40;;;;;;5034665;28;20154;-70
2020/12/24 09:09:25;;;;;;;51.97;30.58;;;9.90;91.30;;;;;;5034509;28;20025;-70
2020/12/24 09:11:54;;;;;;;44.42;28.25;;;9.90;91.20;;;;;;5034184;28;20044;-69
2020/12/24 09:14:22;;;;;;;45.17;28.42;;;9.90;91.20;;;;;;5034682;28;20025;-72
2020/12/24 09:17:04;;;;;;;47.28;28.02;;;9.90;91.20;;;;;;5033531;28;20385;-69
2020/12/24 09:19:29;;;;;;;44.08;27.60;;;9.90;91.00;;;;;;5033707;28;20493;-69
2020/12/24 09:21:58;;;;;;;44.93;29.73;;;9.90;91.00;;;;;;5034351;28;20067;-69
2020/12/24 09:24:26;;;;;;;45.70;29.92;;;9.90;91.10;;;;;;5034014;28;20021;-69
2020/12/24 09:26:54;;;;;;;45.08;28.27;;;9.90;91.00;;;;;;5032662;28;20056;-69
2020/12/24 09:29:22;;;;;;;45.83;29.93;;;9.90;91.10;;;;;;5034326;28;20027;-69
2020/12/24 09:31:59;;;;;;;50.10;32.43;;;9.90;91.10;;;;;;5034403;28;20104;-69
2020/12/24 09:34:27;;;;;;;46.57;28.23;;;9.90;91.10;;;;;;5032871;28;20079;-69
2020/12/24 09:36:53;;;;;;;46.63;28.50;;;9.90;91.00;;;;;;5033488;28;20509;-71
2020/12/24 09:39:19;;;;;;;52.42;29.23;;;9.90;91.00;;;;;;5033116;28;20029;-69
2020/12/24 09:41:46;;;;;;;46.85;28.05;;;9.90;91.20;;;;;;5033851;28;20022;-68
2020/12/24 09:44:13;;;;;;;45.92;29.02;;;10.00;91.20;;;;;;5033591;28;20495;-68
2020/12/24 09:46:39;;;;;;;46.50;28.90;;;10.00;91.20;;;;;;5033341;28;20091;-67
2020/12/24 09:49:05;;;;;;;53.53;30.33;;;10.00;91.20;;;;;;5032869;28;20030;-69
2020/12/24 09:51:32;;;;;;;48.72;29.15;;;10.00;91.10;;;;;;5032897;28;20021;-69
2020/12/24 09:53:59;;;;;;;47.05;28.40;;;10.00;91.00;;;;;;5033376;28;20423;-68
2020/12/24 09:56:25;;;;;;;43.20;27.25;;;10.10;91.00;;;;;;5032607;28;20071;-68
2020/12/24 09:58:51;;;;;;;40.97;26.88;;;10.10;91.10;;;;;;5033337;28;20120;-69
2020/12/24 10:01:17;;;;;;;39.15;27.27;;;10.00;91.10;;;;;;5033499;28;20164;-69
2020/12/24 10:03:43;;;;;;;42.58;28.38;;;10.10;91.00;;;;;;5033054;28;20021;-68
2020/12/24 10:06:09;;;;;;;39.60;25.85;;;10.10;90.90;;;;;;5032941;28;20029;-69
2020/12/24 10:08:34;;;;;;;40.13;26.58;;;10.10;90.90;;;;;;5032558;28;20028;-68
2020/12/24 10:11:00;;;;;;;62.78;29.90;;;10.10;91.10;;;;;;5032997;28;20026;-71
2020/12/24 10:13:26;;;;;;;52.05;27.40;;;10.10;91.40;;;;;;5032853;28;20474;-69
2020/12/24 10:15:51;;;;;;;38.13;25.00;;;10.10;91.30;;;;;;5032983;28;20028;-68
2020/12/24 10:18:17;;;;;;;46.95;28.63;;;10.10;91.00;;;;;;5033213;28;20409;-69
2020/12/24 10:20:43;;;;;;;44.03;26.98;;;10.10;91.70;;;;;;5032758;28;20124;-68
2020/12/24 10:23:11;;;;;;;56.33;30.25;;;10.10;91.70;;;;;;5033202;28;20033;-68
2020/12/24 10:25:39;;;;;;;45.67;28.80;;;10.00;91.60;;;;;;5033047;28;20471;-70
2020/12/24 10:28:06;;;;;;;43.65;28.15;;;10.00;91.80;;;;;;5033142;28;20028;-68
2020/12/24 10:30:32;;;;;;;45.50;27.83;;;10.00;91.70;;;;;;5033091;28;20025;-68
2020/12/24 10:32:57;;;;;;;50.95;29.80;;;10.10;91.50;;;;;;5033080;28;20079;-68
2020/12/24 10:35:23;;;;;;;41.92;27.42;;;10.10;91.40;;;;;;5033148;28;20033;-68
2020/12/24 10:37:49;;;;;;;45.30;28.08;;;10.10;91.30;;;;;;5033184;28;20420;-69
2020/12/24 10:40:14;;;;;;;48.15;27.48;;;10.10;91.40;;;;;;5032918;28;20037;-69
2020/12/24 10:42:40;;;;;;;52.55;28.65;;;10.00;91.60;;;;;;5032705;28;20098;-69
2020/12/24 10:45:07;;;;;;;53.85;29.63;;;10.10;91.40;;;;;;5032856;28;20389;-68
2020/12/24 10:47:33;;;;;;;45.57;28.57;;;10.10;91.30;;;;;;5032696;28;20496;-69
2020/12/24 10:49:59;;;;;;;45.07;28.60;;;10.10;91.50;;;;;;5033093;28;20155;-69
2020/12/24 10:52:24;;;;;;;48.63;28.05;;;10.10;91.50;;;;;;5033032;28;20104;-69
2020/12/24 10:54:50;;;;;;;47.10;28.67;;;10.10;91.40;;;;;;5036578;28;20508;-72
2020/12/24 10:57:16;;;;;;;50.50;30.23;;;10.10;91.60;;;;;;5036821;28;20036;-69
2020/12/24 10:59:42;;;;;;;54.92;32.30;;;10.10;91.80;;;;;;5036895;28;20033;-69
2020/12/24 11:02:08;;;;;;;106.35;35.17;;;10.10;91.80;;;;;;5036638;28;20041;-69
2020/12/24 11:04:34;;;;;;;75.90;34.95;;;10.10;91.90;;;;;;5036870;28;20025;-69
2020/12/24 11:06:59;;;;;;;52.95;32.42;;;10.10;91.90;;;;;;5036760;28;20030;-68
2020/12/24 11:09:25;;;;;;;45.53;27.88;;;10.10;92.10;;;;;;5036731;28;20436;-68
2020/12/24 11:11:51;;;;;;;39.72;25.88;;;10.10;92.40;;;;;;5036714;28;20018;-68
2020/12/24 11:14:16;;;;;;;36.80;24.77;;;10.00;92.40;;;;;;5036733;28;20021;-70
2020/12/24 11:16:42;;;;;;;32.42;22.67;;;10.10;92.30;;;;;;5036511;28;20022;-68
2020/12/24 11:19:08;;;;;;;32.97;22.75;;;10.10;92.10;;;;;;5036513;28;20026;-68
2020/12/24 11:21:35;;;;;;;35.70;23.27;;;10.10;92.40;;;;;;5036362;28;20033;-68
2020/12/24 11:24:06;;;;;;;33.28;20.95;;;10.00;92.50;;;;;;5036646;28;20026;-68
2020/12/24 11:26:36;;;;;;;33.33;21.30;;;10.00;92.30;;;;;;5036064;28;20033;-68
2020/12/24 11:29:04;;;;;;;29.33;20.20;;;10.00;92.30;;;;;;5036391;28;20021;-70
2020/12/24 11:31:32;;;;;;;32.42;20.35;;;10.00;92.30;;;;;;5036302;28;20025;-68
2020/12/24 11:33:58;;;;;;;35.58;26.15;;;10.10;92.10;;;;;;5036405;28;20022;-68
2020/12/24 11:36:25;;;;;;;38.58;28.20;;;10.10;92.00;;;;;;5035748;28;20405;-68
2020/12/24 11:38:51;;;;;;;32.03;23.15;;;10.10;91.90;;;;;;5036151;28;20499;-68
2020/12/24 11:41:20;;;;;;;30.90;22.20;;;10.20;91.80;;;;;;5036310;28;20034;-68
2020/12/24 11:43:47;;;;;;;30.73;19.95;;;10.20;91.80;;;;;;5035910;28;20420;-69
2020/12/24 11:46:14;;;;;;;31.83;20.33;;;10.20;91.80;;;;;;5036064;28;20367;-69
2020/12/24 11:48:41;;;;;;;25.83;19.27;;;10.20;91.70;;;;;;5036036;28;20025;-69
2020/12/24 11:51:08;;;;;;;33.83;21.15;;;10.20;91.70;;;;;;5035888;28;20103;-68
2020/12/24 11:53:35;;;;;;;28.55;20.50;;;10.20;91.60;;;;;;5036345;28;20543;-68
2020/12/24 11:56:01;;;;;;;31.77;22.48;;;10.30;91.60;;;;;;5035905;28;20394;-68
2020/12/24 11:58:26;;;;;;;32.75;23.10;;;10.30;91.60;;;;;;5035830;28;20108;-68
2020/12/24 12:00:52;;;;;;;35.90;25.05;;;10.30;92.00;;;;;;5035670;28;20035;-68
2020/12/24 12:03:18;;;;;;;36.60;23.60;;;10.30;91.80;;;;;;5035628;28;20017;-68
2020/12/24 12:05:44;;;;;;;39.97;25.45;;;10.30;91.80;;;;;;5034593;28;20021;-68
2020/12/24 12:08:09;;;;;;;45.42;27.55;;;10.30;91.90;;;;;;5035700;28;20024;-68
2020/12/24 12:10:35;;;;;;;42.53;26.15;;;10.30;91.80;;;;;;5035607;28;20116;-69
2020/12/24 12:13:01;;;;;;;39.38;25.52;;;10.40;91.60;;;;;;5035231;28;20100;-69
2020/12/24 12:15:26;;;;;;;40.30;25.38;;;10.40;91.80;;;;;;5035212;28;20029;-68
2020/12/24 12:17:52;;;;;;;45.33;28.30;;;10.40;91.70;;;;;;5035759;28;20018;-68
2020/12/24 12:20:19;;;;;;;44.22;26.25;;;10.40;91.80;;;;;;5035522;28;20037;-68
2020/12/24 12:22:46;;;;;;;48.17;29.50;;;10.40;91.70;;;;;;5035274;28;20029;-68
2020/12/24 12:25:12;;;;;;;48.72;28.23;;;10.40;91.60;;;;;;5035155;28;20046;-68
2020/12/24 12:27:38;;;;;;;61.85;37.80;;;10.40;91.60;;;;;;5035317;28;20052;-69
2020/12/24 12:30:05;;;;;;;50.08;31.40;;;10.40;91.80;;;;;;5035458;28;20025;-69
2020/12/24 12:32:31;;;;;;;63.53;39.10;;;10.50;91.70;;;;;;5035075;28;20028;-69
2020/12/24 12:34:57;;;;;;;74.35;49.65;;;10.40;91.60;;;;;;5035289;28;20025;-69